Time;durP1;ratioP1;P1;durP2;ratioP2;P2;SDS_P1;SDS_P2;PMS_P1;PMS_P2;Temp;Humidity;BMP_temperature;BMP_pressure;BME280_temperature;BME280_humidity;BME280_pressure;Samples;Min_cycle;Max_cycle;Signal;HPM_P1;HPM_P2
2023/11/24 00:00:16;;;;;;;8.40;2.00;;;;;;;;;;5091452;28;20279;-83
2023/11/24 00:02:43;;;;;;;8.43;1.77;;;;;;;;;;5091603;28;20662;-83
2023/11/24 00:05:10;;;;;;;9.07;1.83;;;;;;;;;;5090888;28;20317;-82
2023/11/24 00:07:40;;;;;;;6.17;1.60;;;;;;;;;;5091746;28;20194;-83
2023/11/24 00:10:08;;;;;;;11.17;1.97;;;;;;;;;;5090974;28;20203;-83
2023/11/24 00:12:36;;;;;;;6.97;1.80;;;;;;;;;;5090914;28;20277;-82
2023/11/24 00:15:04;;;;;;;10.77;1.87;;;;;;;;;;5091339;28;20678;-82
2023/11/24 00:17:31;;;;;;;9.87;2.33;;;;;;;;;;5091102;28;20202;-83
2023/11/24 00:19:58;;;;;;;6.77;1.70;;;;;;;;;;5090900;28;20229;-82
2023/11/24 00:22:26;;;;;;;8.20;2.10;;;;;;;;;;5091272;28;20281;-83
2023/11/24 00:24:54;;;;;;;9.47;2.00;;;;;;;;;;5091102;28;20271;-83
2023/11/24 00:27:21;;;;;;;8.67;1.90;;;;;;;;;;5091437;28;20260;-82
2023/11/24 00:29:50;;;;;;;8.03;1.70;;;;;;;;;;5091424;28;20281;-83
2023/11/24 00:32:19;;;;;;;8.70;1.70;;;;;;;;;;5091170;28;20198;-83
2023/11/24 00:34:46;;;;;;;11.37;2.10;;;;;;;;;;5091131;28;20206;-83
2023/11/24 00:37:14;;;;;;;6.57;1.60;;;;;;;;;;5090956;28;20244;-82
2023/11/24 00:39:41;;;;;;;8.43;1.50;;;;;;;;;;5094237;28;20776;-81
2023/11/24 00:42:08;;;;;;;8.97;1.77;;;;;;;;;;5095075;28;20281;-83
2023/11/24 00:44:35;;;;;;;7.20;1.70;;;;;;;;;;5094332;28;20205;-82
2023/11/24 00:47:04;;;;;;;9.23;1.60;;;;;;;;;;5094247;28;20197;-82
2023/11/24 00:49:32;;;;;;;12.40;2.10;;;;;;;;;;5094238;28;20195;-83
2023/11/24 00:52:00;;;;;;;9.93;1.60;;;;;;;;;;5094813;28;20194;-82
2023/11/24 00:54:27;;;;;;;8.03;1.70;;;;;;;;;;5094118;28;20197;-81
2023/11/24 00:56:54;;;;;;;6.43;1.93;;;;;;;;;;5094735;28;20220;-82
2023/11/24 00:59:21;;;;;;;11.00;2.07;;;;;;;;;;5094552;28;20269;-82
2023/11/24 01:01:49;;;;;;;6.23;1.50;;;;;;;;;;5094708;28;20194;-82
2023/11/24 01:04:17;;;;;;;8.20;1.70;;;;;;;;;;5094948;28;20268;-81
2023/11/24 01:06:45;;;;;;;9.13;1.93;;;;;;;;;;5094272;28;20243;-82
2023/11/24 01:09:12;;;;;;;6.33;1.70;;;;;;;;;;5094095;28;20289;-83
2023/11/24 01:11:39;;;;;;;9.27;1.80;;;;;;;;;;5094599;28;20359;-82
2023/11/24 01:14:07;;;;;;;6.03;1.57;;;;;;;;;;5094577;28;20201;-82
2023/11/24 01:16:34;;;;;;;7.77;2.43;;;;;;;;;;5094256;28;20194;-82
2023/11/24 01:19:01;;;;;;;8.93;2.03;;;;;;;;;;5093808;28;20946;-82
2023/11/24 01:21:29;;;;;;;10.40;2.07;;;;;;;;;;5093955;28;20202;-82
2023/11/24 01:24:02;;;;;;;10.57;2.07;;;;;;;;;;5094221;28;20226;-82
2023/11/24 01:26:29;;;;;;;9.53;1.80;;;;;;;;;;5093808;28;20688;-81
2023/11/24 01:28:58;;;;;;;8.70;2.27;;;;;;;;;;5094192;28;20572;-82
2023/11/24 01:31:25;;;;;;;8.60;1.47;;;;;;;;;;5094022;28;20789;-83
2023/11/24 01:33:53;;;;;;;13.00;1.77;;;;;;;;;;5093659;28;20280;-83
2023/11/24 01:36:20;;;;;;;8.87;2.30;;;;;;;;;;5093686;28;20232;-83
2023/11/24 01:38:50;;;;;;;13.67;1.93;;;;;;;;;;5093010;28;20645;-83
2023/11/24 01:41:18;;;;;;;7.67;1.73;;;;;;;;;;5094023;28;20194;-82
2023/11/24 01:43:57;;;;;;;9.37;1.90;;;;;;;;;;5093426;28;20194;-83
2023/11/24 01:46:25;;;;;;;5.13;1.57;;;;;;;;;;5093476;28;20228;-82
2023/11/24 01:48:52;;;;;;;6.73;1.93;;;;;;;;;;5093706;28;20250;-83
2023/11/24 01:51:20;;;;;;;6.63;1.60;;;;;;;;;;5092757;28;20281;-83
2023/11/24 01:53:48;;;;;;;9.33;2.00;;;;;;;;;;5092824;28;20747;-83
2023/11/24 01:56:15;;;;;;;10.03;2.47;;;;;;;;;;5093146;28;20713;-82
2023/11/24 01:58:43;;;;;;;9.53;2.30;;;;;;;;;;5092929;28;20258;-81
2023/11/24 02:01:10;;;;;;;10.23;2.20;;;;;;;;;;5093287;28;20226;-81
2023/11/24 02:03:37;;;;;;;12.50;2.30;;;;;;;;;;5093153;28;20240;-82
2023/11/24 02:06:05;;;;;;;8.90;2.10;;;;;;;;;;5093537;28;20252;-82
2023/11/24 02:08:32;;;;;;;9.07;2.00;;;;;;;;;;5093094;28;20269;-83
2023/11/24 02:11:02;;;;;;;11.97;2.50;;;;;;;;;;5092952;28;20198;-83
2023/11/24 02:13:29;;;;;;;10.90;2.23;;;;;;;;;;5093638;28;20695;-83
2023/11/24 02:15:56;;;;;;;9.53;3.00;;;;;;;;;;5093056;28;20248;-83
2023/11/24 02:18:23;;;;;;;10.73;2.73;;;;;;;;;;5092833;28;20198;-83
2023/11/24 02:20:51;;;;;;;11.53;2.30;;;;;;;;;;5092888;28;20255;-83
2023/11/24 02:23:19;;;;;;;8.40;2.23;;;;;;;;;;5092748;28;20202;-82
2023/11/24 02:25:46;;;;;;;11.80;2.27;;;;;;;;;;5092608;28;20300;-82
2023/11/24 02:28:14;;;;;;;13.47;2.30;;;;;;;;;;5092523;28;20259;-83
2023/11/24 02:30:41;;;;;;;9.33;2.87;;;;;;;;;;5093153;28;20198;-83
2023/11/24 02:33:09;;;;;;;10.33;2.73;;;;;;;;;;5092504;28;20286;-82
2023/11/24 02:35:37;;;;;;;10.80;2.20;;;;;;;;;;5091995;28;20206;-82
2023/11/24 02:38:05;;;;;;;11.77;2.57;;;;;;;;;;5092859;28;20205;-83
2023/11/24 02:40:33;;;;;;;12.80;2.70;;;;;;;;;;5092320;28;20226;-82
2023/11/24 02:43:01;;;;;;;14.93;3.20;;;;;;;;;;5092542;28;20249;-81
2023/11/24 02:45:28;;;;;;;9.07;3.03;;;;;;;;;;5092352;28;20223;-82
2023/11/24 02:47:55;;;;;;;9.93;2.90;;;;;;;;;;5092741;28;20622;-83
2023/11/24 02:50:23;;;;;;;14.67;2.87;;;;;;;;;;5092380;28;20285;-81
2023/11/24 02:52:50;;;;;;;14.60;3.03;;;;;;;;;;5092327;28;20194;-84
2023/11/24 02:55:18;;;;;;;12.40;2.60;;;;;;;;;;5092348;28;20202;-83
2023/11/24 02:57:47;;;;;;;14.90;3.00;;;;;;;;;;5092141;28;20202;-82
2023/11/24 03:00:15;;;;;;;9.83;2.80;;;;;;;;;;5091961;28;20222;-83
2023/11/24 03:02:43;;;;;;;12.27;2.63;;;;;;;;;;5092000;28;20202;-82
2023/11/24 03:05:11;;;;;;;9.53;2.90;;;;;;;;;;5091762;28;20199;-83
2023/11/24 03:07:38;;;;;;;11.23;3.03;;;;;;;;;;5092033;28;20268;-82
2023/11/24 03:10:08;;;;;;;11.40;3.03;;;;;;;;;;5092115;28;20579;-83
2023/11/24 03:12:35;;;;;;;14.17;2.80;;;;;;;;;;5091861;28;20226;-82
2023/11/24 03:15:04;;;;;;;10.17;2.63;;;;;;;;;;5092028;28;20233;-82
2023/11/24 03:17:31;;;;;;;11.90;2.80;;;;;;;;;;5091932;28;20210;-82
2023/11/24 03:19:58;;;;;;;13.33;2.70;;;;;;;;;;5091377;28;20266;-83
2023/11/24 03:22:25;;;;;;;14.83;2.97;;;;;;;;;;5091980;28;20226;-82
2023/11/24 03:24:53;;;;;;;10.27;3.03;;;;;;;;;;5091479;28;20275;-82
2023/11/24 03:27:20;;;;;;;9.80;2.97;;;;;;;;;;5082233;28;20202;-82
2023/11/24 03:29:48;;;;;;;8.87;2.57;;;;;;;;;;5086191;28;20624;-81
2023/11/24 03:32:16;;;;;;;11.63;2.70;;;;;;;;;;5091441;28;20198;-81
2023/11/24 03:34:43;;;;;;;10.47;2.83;;;;;;;;;;5091666;28;20202;-82
2023/11/24 03:37:11;;;;;;;15.67;3.30;;;;;;;;;;5091690;28;20233;-83
2023/11/24 03:39:38;;;;;;;8.77;2.70;;;;;;;;;;5091387;28;20258;-83
2023/11/24 03:42:05;;;;;;;16.03;3.43;;;;;;;;;;5091889;28;20198;-82
2023/11/24 03:44:32;;;;;;;10.73;3.00;;;;;;;;;;5091601;28;20277;-82
2023/11/24 03:47:00;;;;;;;10.97;2.60;;;;;;;;;;5091414;28;20197;-81
2023/11/24 03:49:28;;;;;;;15.20;2.77;;;;;;;;;;5091280;28;20206;-82
2023/11/24 03:51:55;;;;;;;15.70;3.23;;;;;;;;;;5091235;28;20634;-82
2023/11/24 03:54:23;;;;;;;14.00;3.10;;;;;;;;;;5091393;28;20239;-82
2023/11/24 03:56:50;;;;;;;14.30;2.90;;;;;;;;;;5091309;28;20197;-83
2023/11/24 03:59:17;;;;;;;13.10;2.70;;;;;;;;;;5091362;28;20258;-82
2023/11/24 04:01:44;;;;;;;13.53;2.67;;;;;;;;;;5091724;28;20660;-83
2023/11/24 04:04:12;;;;;;;11.50;2.57;;;;;;;;;;5090995;28;20195;-82
2023/11/24 04:06:40;;;;;;;9.50;2.20;;;;;;;;;;5091690;28;20226;-82
2023/11/24 04:09:09;;;;;;;11.93;2.70;;;;;;;;;;5090778;28;20243;-82
2023/11/24 04:11:36;;;;;;;11.10;2.10;;;;;;;;;;5091710;28;20199;-82
2023/11/24 04:14:03;;;;;;;11.27;2.90;;;;;;;;;;5094091;28;20285;-82
2023/11/24 04:16:31;;;;;;;14.20;3.17;;;;;;;;;;5095004;28;20225;-82
2023/11/24 04:18:58;;;;;;;11.37;2.40;;;;;;;;;;5094899;28;20194;-81
2023/11/24 04:21:25;;;;;;;10.97;2.40;;;;;;;;;;5095113;28;20202;-84
2023/11/24 04:23:54;;;;;;;8.57;2.20;;;;;;;;;;5095070;28;20233;-81
2023/11/24 04:26:21;;;;;;;15.53;2.80;;;;;;;;;;5095095;28;20722;-82
2023/11/24 04:28:48;;;;;;;9.00;2.13;;;;;;;;;;5095140;28;20685;-82
2023/11/24 04:31:15;;;;;;;11.97;2.97;;;;;;;;;;5094902;28;20202;-82
2023/11/24 04:33:43;;;;;;;11.67;2.77;;;;;;;;;;5094718;28;20209;-82
2023/11/24 04:36:12;;;;;;;11.10;2.50;;;;;;;;;;5094834;28;20207;-83
2023/11/24 04:38:39;;;;;;;11.93;2.17;;;;;;;;;;5094723;28;20242;-82
2023/11/24 04:41:09;;;;;;;10.80;2.23;;;;;;;;;;5094762;28;20230;-83
2023/11/24 04:43:36;;;;;;;10.57;2.00;;;;;;;;;;5094686;28;20658;-82
2023/11/24 04:46:03;;;;;;;15.53;2.30;;;;;;;;;;5094614;28;20704;-81
2023/11/24 04:48:31;;;;;;;11.53;2.20;;;;;;;;;;5095014;28;20225;-83
2023/11/24 04:50:58;;;;;;;9.90;2.00;;;;;;;;;;5094610;28;20253;-83
2023/11/24 04:53:25;;;;;;;15.70;2.20;;;;;;;;;;5094473;28;20614;-82
2023/11/24 04:55:52;;;;;;;8.23;2.00;;;;;;;;;;5094816;28;20263;-81
2023/11/24 04:58:21;;;;;;;9.30;1.40;;;;;;;;;;5094435;28;20201;-83
2023/11/24 05:00:48;;;;;;;8.60;2.30;;;;;;;;;;5094328;28;20253;-82
2023/11/24 05:03:15;;;;;;;8.73;2.20;;;;;;;;;;5094574;28;20286;-82
2023/11/24 05:05:43;;;;;;;14.10;2.70;;;;;;;;;;5094046;28;20201;-81
2023/11/24 05:08:10;;;;;;;10.53;2.43;;;;;;;;;;5094357;28;20198;-82
2023/11/24 05:10:37;;;;;;;11.17;2.10;;;;;;;;;;5094391;28;20229;-82
2023/11/24 05:13:04;;;;;;;11.83;1.87;;;;;;;;;;5094065;28;20230;-82
2023/11/24 05:15:34;;;;;;;10.83;2.00;;;;;;;;;;5093830;28;20719;-82
2023/11/24 05:18:03;;;;;;;7.77;1.63;;;;;;;;;;5093938;28;20195;-82
2023/11/24 05:20:30;;;;;;;8.47;1.60;;;;;;;;;;5093779;28;20313;-82
2023/11/24 05:22:57;;;;;;;13.03;2.00;;;;;;;;;;5094130;28;20198;-82
2023/11/24 05:25:24;;;;;;;12.20;2.17;;;;;;;;;;5092530;28;20710;-82
2023/11/24 05:27:51;;;;;;;8.90;2.00;;;;;;;;;;5093978;28;20194;-81
2023/11/24 05:30:19;;;;;;;9.07;1.80;;;;;;;;;;5093321;28;20198;-82
2023/11/24 05:32:48;;;;;;;13.00;2.40;;;;;;;;;;5094539;28;20194;-82
2023/11/24 05:35:15;;;;;;;11.07;1.80;;;;;;;;;;5093530;28;20650;-82
2023/11/24 05:37:42;;;;;;;9.27;1.77;;;;;;;;;;5094110;28;20263;-81
2023/11/24 05:40:12;;;;;;;8.43;1.80;;;;;;;;;;5093720;28;20290;-82
2023/11/24 05:42:39;;;;;;;8.80;1.70;;;;;;;;;;5093483;28;20194;-81
2023/11/24 05:45:08;;;;;;;12.23;1.87;;;;;;;;;;5093348;28;20236;-82
2023/11/24 05:47:35;;;;;;;8.90;1.87;;;;;;;;;;5093995;28;20235;-82
2023/11/24 05:50:06;;;;;;;13.57;1.90;;;;;;;;;;5093648;28;20206;-82
2023/11/24 05:52:33;;;;;;;10.27;2.00;;;;;;;;;;5093461;28;20200;-82
2023/11/24 05:55:00;;;;;;;8.97;1.67;;;;;;;;;;5093541;28;20277;-81
2023/11/24 05:57:28;;;;;;;9.47;1.63;;;;;;;;;;5093433;28;20201;-82
2023/11/24 05:59:55;;;;;;;8.17;1.53;;;;;;;;;;5092924;28;20313;-82
2023/11/24 06:02:22;;;;;;;12.07;2.20;;;;;;;;;;5093314;28;20194;-82
2023/11/24 06:04:50;;;;;;;10.43;1.77;;;;;;;;;;5091642;28;20285;-82
2023/11/24 06:07:19;;;;;;;9.73;2.07;;;;;;;;;;5092553;28;20686;-82
2023/11/24 06:09:46;;;;;;;8.90;2.03;;;;;;;;;;5092837;28;20210;-82
2023/11/24 06:12:13;;;;;;;8.93;1.50;;;;;;;;;;5092261;28;20206;-82
2023/11/24 06:14:40;;;;;;;8.73;1.87;;;;;;;;;;5092667;28;20230;-82
2023/11/24 06:17:08;;;;;;;10.07;2.00;;;;;;;;;;5091627;28;20281;-82
2023/11/24 06:19:35;;;;;;;6.13;1.57;;;;;;;;;;5093059;28;20194;-81
2023/11/24 06:22:02;;;;;;;8.17;2.10;;;;;;;;;;5093006;28;20269;-81
2023/11/24 06:24:31;;;;;;;8.90;1.60;;;;;;;;;;5092344;28;20247;-79
2023/11/24 06:26:58;;;;;;;8.13;1.60;;;;;;;;;;5092362;28;20273;-80
2023/11/24 06:29:26;;;;;;;11.17;2.87;;;;;;;;;;5092385;28;20261;-80
2023/11/24 06:31:53;;;;;;;12.13;2.33;;;;;;;;;;5092665;28;20257;-81
2023/11/24 06:34:20;;;;;;;10.40;1.90;;;;;;;;;;5086333;28;20289;-80
2023/11/24 06:36:49;;;;;;;7.47;1.57;;;;;;;;;;5092430;28;20190;-79
2023/11/24 06:39:19;;;;;;;10.60;2.33;;;;;;;;;;5092169;28;20616;-79
2023/11/24 06:41:47;;;;;;;7.90;1.90;;;;;;;;;;5092263;28;20226;-81
2023/11/24 06:44:15;;;;;;;13.13;2.07;;;;;;;;;;5092039;28;20294;-80
2023/11/24 06:46:43;;;;;;;9.27;2.33;;;;;;;;;;5092705;28;20305;-80
2023/11/24 06:49:11;;;;;;;10.10;2.10;;;;;;;;;;5092508;28;20289;-80
2023/11/24 06:51:38;;;;;;;11.40;2.10;;;;;;;;;;5091935;28;20260;-80
2023/11/24 06:54:06;;;;;;;9.13;1.97;;;;;;;;;;5074123;28;20259;-81
2023/11/24 06:56:33;;;;;;;10.40;2.30;;;;;;;;;;5091911;28;20198;-79
2023/11/24 06:59:02;;;;;;;6.53;1.80;;;;;;;;;;5091762;28;20281;-80
2023/11/24 07:01:31;;;;;;;9.43;2.17;;;;;;;;;;5091742;28;20252;-80
2023/11/24 07:03:59;;;;;;;9.23;1.87;;;;;;;;;;5092438;28;20573;-79
2023/11/24 07:06:27;;;;;;;9.87;2.30;;;;;;;;;;5076242;28;20225;-82
2023/11/24 07:08:54;;;;;;;11.60;1.90;;;;;;;;;;5066142;28;20225;-81
2023/11/24 07:11:21;;;;;;;9.23;2.27;;;;;;;;;;5073420;28;20736;-81
2023/11/24 07:13:49;;;;;;;8.10;2.13;;;;;;;;;;5071591;28;20282;-81
2023/11/24 07:16:18;;;;;;;9.53;2.10;;;;;;;;;;5068352;28;20202;-80
2023/11/24 07:18:45;;;;;;;10.70;2.37;;;;;;;;;;5071594;28;20747;-80
2023/11/24 07:21:12;;;;;;;11.27;2.27;;;;;;;;;;5071277;28;20617;-81
2023/11/24 07:23:40;;;;;;;8.23;1.93;;;;;;;;;;5071679;28;20199;-81
2023/11/24 07:26:08;;;;;;;16.63;2.80;;;;;;;;;;5070383;28;20231;-81
2023/11/24 07:28:35;;;;;;;11.03;2.43;;;;;;;;;;5071034;28;20195;-80
2023/11/24 07:31:04;;;;;;;11.77;2.73;;;;;;;;;;5071194;28;20195;-81
2023/11/24 07:33:32;;;;;;;10.53;2.53;;;;;;;;;;5071316;28;20194;-80
2023/11/24 07:36:00;;;;;;;12.97;2.17;;;;;;;;;;5087581;28;20198;-81
2023/11/24 07:38:27;;;;;;;9.57;2.50;;;;;;;;;;5086678;28;20194;-82
2023/11/24 07:40:54;;;;;;;9.10;2.20;;;;;;;;;;5079238;28;20434;-82
2023/11/24 07:43:22;;;;;;;12.97;2.80;;;;;;;;;;5071703;28;20226;-82
2023/11/24 07:45:51;;;;;;;12.20;2.53;;;;;;;;;;5079285;28;20194;-82
2023/11/24 07:48:19;;;;;;;13.43;2.13;;;;;;;;;;5090654;28;20659;-81
2023/11/24 07:50:49;;;;;;;8.30;2.27;;;;;;;;;;5091438;28;20200;-82
2023/11/24 07:53:16;;;;;;;10.00;2.17;;;;;;;;;;5091152;28;20247;-81
2023/11/24 07:55:44;;;;;;;12.23;2.50;;;;;;;;;;5090923;28;20202;-82
2023/11/24 07:58:12;;;;;;;9.93;2.33;;;;;;;;;;5091093;28;20210;-82
2023/11/24 08:00:40;;;;;;;8.53;2.30;;;;;;;;;;5090869;28;20272;-81
2023/11/24 08:03:07;;;;;;;13.23;2.33;;;;;;;;;;5090851;28;20194;-81
2023/11/24 08:05:34;;;;;;;11.63;2.57;;;;;;;;;;5091110;28;20293;-82
2023/11/24 08:08:03;;;;;;;13.43;2.40;;;;;;;;;;5090940;28;20222;-82
2023/11/24 08:10:30;;;;;;;12.03;2.57;;;;;;;;;;5089920;28;20210;-81
2023/11/24 08:12:57;;;;;;;10.80;2.70;;;;;;;;;;5090932;28;20316;-81
2023/11/24 08:15:25;;;;;;;13.77;2.67;;;;;;;;;;5090998;28;20203;-79
2023/11/24 08:17:52;;;;;;;13.43;2.80;;;;;;;;;;5090864;28;20267;-79
2023/11/24 08:20:20;;;;;;;12.13;3.13;;;;;;;;;;5090869;28;20194;-81
2023/11/24 08:22:49;;;;;;;13.53;2.77;;;;;;;;;;5091367;28;20278;-82
2023/11/24 08:25:17;;;;;;;10.40;2.40;;;;;;;;;;5090403;28;20722;-80
2023/11/24 08:27:45;;;;;;;9.97;2.70;;;;;;;;;;5090605;28;20290;-81
2023/11/24 08:30:13;;;;;;;12.07;2.87;;;;;;;;;;5090702;28;20201;-80
2023/11/24 08:32:40;;;;;;;12.90;3.00;;;;;;;;;;5090208;28;20675;-81
2023/11/24 08:35:08;;;;;;;14.03;2.70;;;;;;;;;;5090703;28;20233;-81
2023/11/24 08:37:35;;;;;;;11.00;2.80;;;;;;;;;;5090495;28;20195;-82
2023/11/24 08:40:04;;;;;;;10.00;2.40;;;;;;;;;;5090246;28;20301;-82
2023/11/24 08:42:33;;;;;;;8.27;2.70;;;;;;;;;;5090223;28;20230;-81
2023/11/24 08:45:01;;;;;;;10.43;2.47;;;;;;;;;;5091045;28;20217;-81
2023/11/24 08:47:29;;;;;;;12.23;2.20;;;;;;;;;;5090292;28;20289;-81
2023/11/24 08:49:56;;;;;;;13.30;2.90;;;;;;;;;;5090986;28;20199;-82
2023/11/24 08:52:24;;;;;;;10.87;2.53;;;;;;;;;;5090794;28;20199;-80
2023/11/24 08:54:51;;;;;;;9.57;2.37;;;;;;;;;;5090838;28;20194;-83
2023/11/24 08:57:18;;;;;;;11.40;2.27;;;;;;;;;;5090327;28;20636;-82
2023/11/24 08:59:47;;;;;;;11.90;2.30;;;;;;;;;;5092653;28;20260;-82
2023/11/24 09:02:14;;;;;;;7.40;1.90;;;;;;;;;;5093982;28;20272;-82
2023/11/24 09:04:41;;;;;;;13.40;1.83;;;;;;;;;;5094439;28;20199;-82
2023/11/24 09:07:09;;;;;;;12.03;2.37;;;;;;;;;;5093777;28;20733;-83
2023/11/24 09:09:37;;;;;;;11.93;2.07;;;;;;;;;;5093892;28;20364;-82
2023/11/24 09:12:05;;;;;;;9.30;1.97;;;;;;;;;;5093721;28;20194;-82
2023/11/24 09:14:33;;;;;;;6.73;2.13;;;;;;;;;;5087644;28;20199;-82
2023/11/24 09:17:02;;;;;;;12.60;2.53;;;;;;;;;;5082835;28;20214;-82
2023/11/24 09:19:31;;;;;;;11.70;2.80;;;;;;;;;;5073702;28;20199;-82
2023/11/24 09:22:00;;;;;;;8.43;2.40;;;;;;;;;;5073263;28;20267;-82
2023/11/24 09:24:27;;;;;;;9.47;2.80;;;;;;;;;;5073095;28;20583;-83
2023/11/24 09:26:55;;;;;;;15.37;3.03;;;;;;;;;;5073474;28;20191;-81
2023/11/24 09:29:22;;;;;;;11.93;3.27;;;;;;;;;;5073633;28;20199;-82
2023/11/24 09:31:49;;;;;;;11.53;3.00;;;;;;;;;;5073475;28;20610;-82
2023/11/24 09:34:18;;;;;;;9.83;2.97;;;;;;;;;;5081103;28;20293;-82
2023/11/24 09:36:46;;;;;;;10.77;2.80;;;;;;;;;;5093225;28;20202;-81
2023/11/24 09:39:17;;;;;;;10.00;2.67;;;;;;;;;;5093289;28;20198;-82
2023/11/24 09:41:48;;;;;;;9.87;2.40;;;;;;;;;;5087385;28;20750;-82
2023/11/24 09:44:16;;;;;;;9.50;2.40;;;;;;;;;;5084765;28;20214;-81
2023/11/24 09:46:44;;;;;;;7.57;2.47;;;;;;;;;;5093258;28;20211;-82
2023/11/24 09:49:12;;;;;;;9.37;2.27;;;;;;;;;;5092918;28;20205;-82
2023/11/24 09:51:41;;;;;;;12.20;2.03;;;;;;;;;;5092741;28;20234;-82
2023/11/24 09:54:10;;;;;;;9.80;2.27;;;;;;;;;;5093191;28;20198;-82
2023/11/24 09:56:40;;;;;;;7.40;2.07;;;;;;;;;;5092836;28;20673;-82
2023/11/24 09:59:08;;;;;;;9.00;2.07;;;;;;;;;;5093531;28;20248;-82
2023/11/24 10:01:37;;;;;;;7.00;1.60;;;;;;;;;;5092993;28;20639;-82
2023/11/24 10:04:06;;;;;;;9.93;1.93;;;;;;;;;;5093377;28;20264;-82
2023/11/24 10:06:33;;;;;;;8.17;1.93;;;;;;;;;;5092271;28;20205;-82
2023/11/24 10:09:06;;;;;;;6.57;1.63;;;;;;;;;;5092715;28;20282;-83
2023/11/24 10:11:36;;;;;;;6.60;1.42;;;;;;;;;;5091626;28;20208;-81
2023/11/24 10:14:05;;;;;;;6.93;1.70;;;;;;;;;;5092691;28;20620;-80
2023/11/24 10:16:32;;;;;;;7.80;1.47;;;;;;;;;;5092562;28;20202;-81
2023/11/24 10:19:00;;;;;;;7.17;1.80;;;;;;;;;;5092487;28;20241;-82
2023/11/24 10:21:28;;;;;;;7.20;1.70;;;;;;;;;;5092285;28;20272;-83
2023/11/24 10:23:56;;;;;;;5.93;1.80;;;;;;;;;;5092522;28;20199;-82
2023/11/24 10:26:25;;;;;;;5.50;1.80;;;;;;;;;;5092183;28;20232;-81
2023/11/24 10:28:53;;;;;;;9.33;1.93;;;;;;;;;;5091619;28;20243;-81
2023/11/24 10:31:22;;;;;;;4.32;1.45;;;;;;;;;;5091824;28;20198;-81
2023/11/24 10:33:49;;;;;;;6.93;1.40;;;;;;;;;;5092470;28;20234;-81
2023/11/24 10:36:19;;;;;;;5.90;1.20;;;;;;;;;;5091388;28;20718;-81
2023/11/24 10:38:48;;;;;;;5.63;1.35;;;;;;;;;;5091905;28;20224;-82
2023/11/24 10:41:19;;;;;;;6.93;1.42;;;;;;;;;;5091549;28;20310;-81
2023/11/24 10:43:49;;;;;;;6.55;1.38;;;;;;;;;;5092037;28;20193;-81
2023/11/24 10:46:17;;;;;;;6.25;1.15;;;;;;;;;;5092110;28;20191;-81
2023/11/24 10:48:48;;;;;;;4.43;1.33;;;;;;;;;;5091715;28;20678;-81
2023/11/24 10:51:21;;;;;;;4.63;1.50;;;;;;;;;;5080016;28;20234;-81
2023/11/24 10:53:52;;;;;;;8.35;1.85;;;;;;;;;;5091373;28;20202;-82
2023/11/24 10:56:21;;;;;;;4.18;1.40;;;;;;;;;;5091562;28;20666;-80
2023/11/24 10:58:52;;;;;;;5.63;1.35;;;;;;;;;;5092475;28;20396;-82
2023/11/24 11:01:22;;;;;;;7.35;1.17;;;;;;;;;;5085494;28;20202;-82
2023/11/24 11:03:50;;;;;;;3.35;1.10;;;;;;;;;;5092004;28;20194;-82
2023/11/24 11:06:24;;;;;;;8.82;1.83;;;;;;;;;;5091146;28;20190;-82
2023/11/24 11:08:57;;;;;;;7.05;1.50;;;;;;;;;;5088874;28;20194;-82
2023/11/24 11:11:39;;;;;;;6.90;1.50;;;;;;;;;;5083630;28;20710;-81
2023/11/24 11:14:09;;;;;;;5.10;1.63;;;;;;;;;;5087730;28;20209;-81
2023/11/24 11:16:38;;;;;;;4.30;1.40;;;;;;;;;;5088270;28;20206;-82
2023/11/24 11:19:20;;;;;;;6.78;1.50;;;;;;;;;;5090294;28;20197;-82
2023/11/24 11:21:52;;;;;;;10.13;2.05;;;;;;;;;;5088519;28;20332;-82
2023/11/24 11:24:24;;;;;;;7.03;1.50;;;;;;;;;;5088331;28;20191;-80
2023/11/24 11:26:52;;;;;;;7.47;1.88;;;;;;;;;;5055158;28;20281;-80
2023/11/24 11:29:23;;;;;;;7.93;1.90;;;;;;;;;;5054638;28;20201;-80
2023/11/24 11:31:51;;;;;;;5.53;1.48;;;;;;;;;;5050291;28;20627;-81
2023/11/24 11:34:20;;;;;;;10.93;2.25;;;;;;;;;;5049928;28;20223;-80
2023/11/24 11:37:11;;;;;;;10.55;2.05;;;;;;;;;;5045042;28;20199;-81
2023/11/24 11:39:43;;;;;;;5.18;1.70;;;;;;;;;;5045696;28;20224;-82
2023/11/24 11:42:11;;;;;;;7.65;2.08;;;;;;;;;;5050542;28;20302;-81
2023/11/24 11:44:46;;;;;;;7.82;2.20;;;;;;;;;;5050323;28;20199;-81
2023/11/24 11:47:20;;;;;;;9.48;2.55;;;;;;;;;;5041811;28;20270;-81
2023/11/24 11:49:51;;;;;;;5.35;1.83;;;;;;;;;;5049435;28;20207;-80
2023/11/24 11:52:20;;;;;;;11.32;2.20;;;;;;;;;;5042679;28;20195;-79
2023/11/24 11:54:49;;;;;;;14.32;2.70;;;;;;;;;;5048572;28;20199;-80
2023/11/24 11:57:17;;;;;;;9.80;1.88;;;;;;;;;;5050054;28;20196;-80
2023/11/24 11:59:47;;;;;;;12.80;2.53;;;;;;;;;;5050205;28;20215;-80
2023/11/24 12:02:17;;;;;;;14.70;2.55;;;;;;;;;;5041470;28;20700;-79
2023/11/24 12:04:44;;;;;;;9.48;2.70;;;;;;;;;;5050037;28;20192;-78
2023/11/24 12:07:12;;;;;;;10.88;2.53;;;;;;;;;;5049637;28;20690;-79
2023/11/24 12:09:41;;;;;;;9.75;2.65;;;;;;;;;;5049487;28;20196;-80
2023/11/24 12:12:09;;;;;;;9.85;2.28;;;;;;;;;;5050067;28;20199;-78
2023/11/24 12:14:41;;;;;;;12.02;3.03;;;;;;;;;;5050725;28;20227;-78
2023/11/24 12:17:10;;;;;;;16.70;2.70;;;;;;;;;;5050501;28;20195;-79
2023/11/24 12:19:38;;;;;;;11.95;2.15;;;;;;;;;;5051065;28;20206;-78
2023/11/24 12:22:07;;;;;;;11.02;2.88;;;;;;;;;;5048365;28;20331;-79
2023/11/24 12:24:37;;;;;;;12.15;2.50;;;;;;;;;;5041116;28;20212;-78
2023/11/24 12:27:06;;;;;;;12.38;2.75;;;;;;;;;;5070617;28;20602;-81
2023/11/24 12:29:33;;;;;;;13.15;2.40;;;;;;;;;;5071080;28;20199;-80
2023/11/24 12:32:04;;;;;;;13.40;2.65;;;;;;;;;;5070309;28;20539;-81
2023/11/24 12:34:36;;;;;;;11.18;2.20;;;;;;;;;;5075837;28;20222;-80
2023/11/24 12:37:03;;;;;;;12.57;2.50;;;;;;;;;;5094610;28;20198;-80
2023/11/24 12:39:33;;;;;;;12.40;2.67;;;;;;;;;;5094615;28;20666;-81
2023/11/24 12:42:01;;;;;;;13.70;2.58;;;;;;;;;;5094735;28;20230;-80
2023/11/24 12:44:31;;;;;;;12.18;2.75;;;;;;;;;;5094144;28;20228;-80
2023/11/24 12:47:13;;;;;;;12.55;2.47;;;;;;;;;;5094897;28;20239;-80
2023/11/24 12:50:14;;;;;;;14.05;3.30;;;;;;;;;;5094694;28;20304;-80
2023/11/24 12:52:42;;;;;;;11.17;2.87;;;;;;;;;;5081267;28;20677;-82
2023/11/24 12:55:10;;;;;;;14.13;2.93;;;;;;;;;;5075898;28;20738;-81
2023/11/24 12:57:38;;;;;;;14.80;2.67;;;;;;;;;;5073879;28;20227;-81
2023/11/24 13:00:09;;;;;;;13.80;2.47;;;;;;;;;;5073695;28;20253;-80
2023/11/24 13:02:36;;;;;;;15.87;2.50;;;;;;;;;;5074199;28;20261;-80
2023/11/24 13:05:07;;;;;;;18.43;2.80;;;;;;;;;;5073903;28;20231;-80
2023/11/24 13:07:34;;;;;;;11.27;2.67;;;;;;;;;;5073441;28;20199;-80
2023/11/24 13:10:02;;;;;;;13.83;3.00;;;;;;;;;;5074029;28;20195;-81
2023/11/24 13:12:30;;;;;;;13.43;2.90;;;;;;;;;;5073683;28;20205;-81
2023/11/24 13:14:58;;;;;;;18.00;3.83;;;;;;;;;;5073638;28;20227;-81
2023/11/24 13:17:25;;;;;;;11.47;2.77;;;;;;;;;;5074075;28;20199;-81
2023/11/24 13:19:52;;;;;;;12.93;2.80;;;;;;;;;;5073651;28;20314;-80
2023/11/24 13:22:21;;;;;;;12.67;3.10;;;;;;;;;;5073578;28;20226;-80
2023/11/24 13:24:48;;;;;;;16.07;2.70;;;;;;;;;;5073209;28;20331;-80
2023/11/24 13:27:15;;;;;;;19.27;3.37;;;;;;;;;;5073336;28;20290;-79
2023/11/24 13:29:43;;;;;;;14.90;2.70;;;;;;;;;;5072405;28;20679;-79
2023/11/24 13:32:11;;;;;;;13.87;2.97;;;;;;;;;;5072742;28;20196;-81
2023/11/24 13:34:38;;;;;;;12.53;3.30;;;;;;;;;;5077798;28;20195;-81
2023/11/24 13:37:06;;;;;;;12.60;2.90;;;;;;;;;;5093494;28;20198;-80
2023/11/24 13:39:35;;;;;;;10.80;2.85;;;;;;;;;;5093293;28;20645;-81
2023/11/24 13:42:03;;;;;;;11.98;2.60;;;;;;;;;;5093593;28;20191;-81
2023/11/24 13:44:30;;;;;;;12.27;2.80;;;;;;;;;;5092779;28;20207;-81
2023/11/24 13:46:58;;;;;;;15.77;2.67;;;;;;;;;;5092661;28;20198;-81
2023/11/24 13:49:25;;;;;;;14.30;2.63;;;;;;;;;;5093248;28;20731;-80
2023/11/24 13:51:53;;;;;;;14.73;2.20;;;;;;;;;;5093280;28;20206;-80
2023/11/24 13:54:23;;;;;;;11.80;2.70;;;;;;;;;;5093018;28;20291;-80
2023/11/24 13:56:53;;;;;;;17.13;2.67;;;;;;;;;;5093385;28;20194;-80
2023/11/24 13:59:21;;;;;;;14.00;3.10;;;;;;;;;;5093268;28;20198;-81
2023/11/24 14:01:49;;;;;;;14.13;2.90;;;;;;;;;;5092688;28;20199;-80
2023/11/24 14:04:17;;;;;;;11.73;2.87;;;;;;;;;;5093100;28;20222;-80
2023/11/24 14:06:47;;;;;;;15.70;2.83;;;;;;;;;;5092753;28;20624;-80
2023/11/24 14:09:19;;;;;;;10.93;2.90;;;;;;;;;;5092672;28;20194;-81
2023/11/24 14:11:46;;;;;;;18.03;2.87;;;;;;;;;;5092485;28;20209;-81
2023/11/24 14:14:15;;;;;;;10.93;2.57;;;;;;;;;;5092501;28;20599;-81
2023/11/24 14:16:43;;;;;;;16.67;2.83;;;;;;;;;;5092348;28;20609;-80
2023/11/24 14:19:10;;;;;;;16.57;3.20;;;;;;;;;;5093373;28;20190;-80
2023/11/24 14:21:38;;;;;;;13.40;3.20;;;;;;;;;;5092627;28;20226;-79
2023/11/24 14:24:06;;;;;;;17.90;3.00;;;;;;;;;;5092489;28;20320;-80
2023/11/24 14:26:34;;;;;;;17.33;2.97;;;;;;;;;;5092028;28;20296;-79
2023/11/24 14:29:04;;;;;;;18.33;3.77;;;;;;;;;;5092209;28;20194;-79
2023/11/24 14:31:32;;;;;;;14.57;3.47;;;;;;;;;;5092500;28;20206;-79
2023/11/24 14:34:00;;;;;;;15.43;2.83;;;;;;;;;;5092091;28;20237;-80
2023/11/24 14:36:27;;;;;;;12.27;3.23;;;;;;;;;;5079462;28;20251;-79
2023/11/24 14:38:54;;;;;;;16.87;3.03;;;;;;;;;;5072070;28;20225;-80
2023/11/24 14:41:22;;;;;;;16.43;4.93;;;;;;;;;;5071499;28;20227;-81